createdAt,value
2018-09-12T00:02:03.627Z,14.94
2018-09-12T00:04:33.499Z,14.91
2018-09-12T00:07:03.348Z,14.86
2018-09-12T00:09:33.650Z,14.94
2018-09-12T00:12:03.730Z,15.01
2018-09-12T03:04:14.996Z,14.63
2018-09-12T03:06:46.973Z,14.68
2018-09-12T03:09:17.233Z,14.79
2018-09-12T03:11:47.245Z,14.80
2018-09-12T03:14:18.777Z,14.79
2018-09-12T03:20:28.459Z,14.97
2018-09-12T03:38:15.605Z,14.89
2018-09-12T03:41:14.496Z,14.87
2018-09-12T03:47:22.410Z,14.83
2018-09-12T04:01:47.124Z,14.86
2018-09-12T04:07:35.279Z,14.88
2018-09-12T04:13:31.219Z,14.85
2018-09-12T04:16:11.347Z,14.90
2018-09-12T04:25:14.988Z,14.86
2018-09-12T04:31:50.644Z,14.89
2018-09-12T05:09:33.220Z,15.08
2018-09-12T05:12:04.494Z,14.98
2018-09-12T05:14:36.326Z,14.99
2018-09-12T05:17:06.533Z,15.07
2018-09-12T05:19:39.018Z,15.05
2018-09-12T05:22:10.811Z,15.10
2018-09-12T05:24:41.412Z,15.15
2018-09-12T05:27:13.743Z,15.11
2018-09-12T05:29:43.929Z,15.03
2018-09-12T05:39:42.180Z,15.13
2018-09-12T05:45:23.634Z,15.14
2018-09-12T05:47:54.675Z,15.18
2018-09-12T05:50:25.832Z,15.27
2018-09-12T05:52:57.787Z,15.28
2018-09-12T05:55:28.524Z,15.35
2018-09-12T05:57:58.555Z,15.30
2018-09-12T06:00:34.796Z,15.27
2018-09-12T06:03:05.621Z,15.33
2018-09-12T06:05:36.813Z,15.29
2018-09-12T06:08:08.066Z,15.40
2018-09-12T06:10:38.232Z,15.34
2018-09-12T06:13:10.049Z,15.48
2018-09-12T06:15:41.204Z,15.45
2018-09-12T06:18:11.276Z,15.49
2018-09-12T06:20:43.830Z,15.49
2018-09-12T06:23:14.776Z,15.56
2018-09-12T06:25:44.687Z,15.50
2018-09-12T06:28:14.637Z,15.55
2018-09-12T06:30:45.791Z,15.49
2018-09-12T06:33:17.051Z,15.47
2018-09-12T06:35:47.536Z,15.51
2018-09-12T06:38:18.932Z,15.60
2018-09-12T06:40:51.639Z,15.59
2018-09-12T06:43:23.249Z,15.66
2018-09-12T06:45:54.578Z,15.85
2018-09-12T06:48:27.506Z,15.81
2018-09-12T06:50:57.947Z,15.87
2018-09-12T06:53:28.740Z,15.68
2018-09-12T07:12:51.301Z,15.86
2018-09-12T07:15:23.305Z,15.85
2018-09-12T07:17:53.558Z,15.91
2018-09-12T07:20:24.026Z,15.80
2018-09-12T07:22:56.401Z,15.81
2018-09-12T07:25:28.280Z,15.77
2018-09-12T07:27:59.597Z,15.83
2018-09-12T07:30:29.604Z,15.85
2018-09-12T07:33:03.948Z,15.75
2018-09-12T07:35:34.412Z,15.83
2018-09-12T07:38:07.135Z,15.88
2018-09-12T07:40:43.749Z,15.79
2018-09-12T07:43:16.259Z,15.88
2018-09-12T07:45:55.967Z,15.86
2018-09-12T07:48:29.634Z,15.97
2018-09-12T07:51:00.721Z,15.97
2018-09-12T07:53:31.792Z,15.99
2018-09-12T07:56:03.316Z,16.02
2018-09-12T07:58:35.265Z,15.79
2018-09-12T08:01:06.388Z,15.85
2018-09-12T08:06:38.692Z,15.62
2018-09-12T08:09:13.027Z,15.74
2018-09-12T08:18:41.674Z,15.86
2018-09-12T08:24:51.899Z,16.02
2018-09-12T08:27:23.175Z,16.04
2018-09-12T08:29:53.334Z,15.98
2018-09-12T08:32:23.557Z,15.94
2018-09-12T08:34:54.541Z,15.92
2018-09-12T08:37:29.004Z,15.94
2018-09-12T08:39:59.386Z,15.89
2018-09-12T08:42:29.482Z,15.85
2018-09-12T08:44:59.667Z,15.82
2018-09-12T08:47:30.165Z,15.81
2018-09-12T08:50:01.351Z,15.53
2018-09-12T08:52:32.627Z,15.60
2018-09-12T08:55:06.077Z,15.77
2018-09-12T08:57:36.610Z,15.50
2018-09-12T09:03:09.455Z,15.77
2018-09-12T09:08:42.470Z,15.79
2018-09-12T09:11:20.851Z,15.87
2018-09-12T09:16:42.801Z,15.72
2018-09-12T09:19:14.635Z,15.73
2018-09-12T09:21:49.500Z,15.83
2018-09-12T09:26:58.104Z,15.51
2018-09-12T09:29:33.846Z,15.75
2018-09-12T09:32:08.065Z,15.65
2018-09-12T09:34:43.760Z,15.61
2018-09-12T09:37:27.569Z,15.61
2018-09-12T09:40:03.209Z,15.41
2018-09-12T09:45:39.145Z,15.77
2018-09-12T09:48:21.660Z,15.57
2018-09-12T09:50:54.160Z,15.75
2018-09-12T09:53:25.271Z,15.78
2018-09-12T09:55:57.922Z,15.89
2018-09-12T09:58:29.459Z,15.97
2018-09-12T10:01:05.296Z,15.58
2018-09-12T10:06:25.702Z,15.77
2018-09-12T10:08:58.186Z,15.79
2018-09-12T10:11:29.005Z,15.72
2018-09-12T10:14:06.586Z,15.71
2018-09-12T10:16:38.652Z,15.65
2018-09-12T10:19:09.809Z,15.66
2018-09-12T10:21:41.245Z,15.61
2018-09-12T10:29:19.084Z,15.69
2018-09-12T10:31:49.694Z,15.78
2018-09-12T10:34:20.764Z,15.59
2018-09-12T10:36:51.473Z,15.46
2018-09-12T10:39:22.116Z,15.43
2018-09-12T10:41:53.898Z,15.39
2018-09-12T10:56:43.827Z,15.75
2018-09-12T10:59:13.961Z,15.82
2018-09-12T11:01:43.817Z,15.89
2018-09-12T11:04:15.626Z,16.05
2018-09-12T11:06:45.972Z,16.03
2018-09-12T11:09:17.502Z,15.92
2018-09-12T11:11:47.522Z,16.09
2018-09-12T11:14:17.988Z,16.27
2018-09-12T11:16:48.253Z,15.83
2018-09-12T11:19:18.300Z,15.97
2018-09-12T11:21:48.859Z,16.20
2018-09-12T11:24:19.726Z,16.30
2018-09-12T11:26:51.180Z,16.22
2018-09-12T11:29:21.437Z,16.00
2018-09-12T11:32:02.215Z,16.02
2018-09-12T11:34:36.176Z,16.32
2018-09-12T11:40:05.459Z,16.01
2018-09-12T11:42:38.589Z,16.15
2018-09-12T11:45:08.916Z,16.22
2018-09-12T11:47:39.678Z,16.12
2018-09-12T11:51:43.574Z,16.14
2018-09-12T11:54:13.866Z,16.13
2018-09-12T11:56:45.022Z,16.23
2018-09-12T11:59:15.057Z,16.34
2018-09-12T12:01:45.374Z,16.22
2018-09-12T12:04:16.626Z,16.35
2018-09-12T12:06:49.010Z,16.39
2018-09-12T12:09:19.141Z,16.30
2018-09-12T12:11:49.215Z,16.39
2018-09-12T12:14:20.384Z,16.58
2018-09-12T12:17:04.439Z,16.32
2018-09-12T12:19:34.750Z,16.58
2018-09-12T12:22:04.863Z,16.63
2018-09-12T12:24:35.087Z,16.67
2018-09-12T12:27:07.210Z,16.57
2018-09-12T12:29:38.805Z,16.11
2018-09-12T12:32:09.439Z,15.91
2018-09-12T12:34:42.113Z,16.06
2018-09-12T12:37:14.491Z,16.36
2018-09-12T12:39:44.539Z,16.35
2018-09-12T12:42:15.769Z,16.44
2018-09-12T12:44:46.598Z,16.41
2018-09-12T12:47:16.711Z,16.48
2018-09-12T12:49:47.483Z,16.32
2018-09-12T12:52:17.787Z,16.36
2018-09-12T12:54:47.982Z,16.51
2018-09-12T12:57:19.627Z,16.48
2018-09-12T12:59:50.851Z,16.70
2018-09-12T13:02:21.210Z,16.47
2018-09-12T13:04:52.046Z,16.32
2018-09-12T13:07:22.597Z,16.19
2018-09-12T13:09:52.472Z,16.37
2018-09-12T13:14:59.517Z,16.54
2018-09-12T13:17:30.235Z,16.70
2018-09-12T13:20:02.104Z,16.79
2018-09-12T13:22:33.724Z,16.84
2018-09-12T13:25:03.456Z,16.64
2018-09-12T13:27:33.233Z,16.36
2018-09-12T13:30:04.255Z,16.45
2018-09-12T13:32:41.966Z,16.53
2018-09-12T13:35:14.968Z,16.42
2018-09-12T13:37:44.754Z,16.62
2018-09-12T13:40:15.000Z,16.66
2018-09-12T13:42:44.813Z,16.63
2018-09-12T13:45:14.654Z,16.32
2018-09-12T13:47:45.151Z,16.26
2018-09-12T13:50:18.173Z,16.55
2018-09-12T13:52:50.279Z,16.43
2018-09-12T13:55:21.285Z,16.12
2018-09-12T13:57:53.517Z,16.27
2018-09-12T14:00:24.448Z,16.36
2018-09-12T14:02:59.279Z,16.31
2018-09-12T14:05:29.758Z,16.34
2018-09-12T14:08:01.205Z,16.44
2018-09-12T14:10:32.813Z,16.45
2018-09-12T14:13:04.669Z,16.54
2018-09-12T14:15:35.218Z,16.48
2018-09-12T14:18:05.323Z,16.41
2018-09-12T14:20:37.188Z,16.53
2018-09-12T14:23:12.837Z,16.65
2018-09-12T14:25:46.114Z,16.35
2018-09-12T14:28:16.627Z,16.42
2018-09-12T14:30:48.383Z,16.44
2018-09-12T14:33:18.643Z,16.52
2018-09-12T14:35:49.618Z,16.52
2018-09-12T14:38:27.462Z,16.32
2018-09-12T14:40:57.783Z,16.48
2018-09-12T14:43:28.486Z,16.42
2018-09-12T14:45:59.994Z,16.61
2018-09-12T14:48:30.244Z,16.52
2018-09-12T14:51:04.223Z,16.59
2018-09-12T14:53:34.814Z,16.62
2018-09-12T14:56:06.944Z,16.54
2018-09-12T14:58:37.271Z,16.66
2018-09-12T15:01:07.482Z,16.45
2018-09-12T15:03:42.496Z,16.53
2018-09-12T15:06:13.779Z,16.52
2018-09-12T15:08:43.777Z,16.62
2018-09-12T15:11:13.902Z,16.67
2018-09-12T15:13:44.310Z,16.46
2018-09-12T15:16:14.949Z,16.41
2018-09-12T15:18:48.069Z,16.38
2018-09-12T15:21:18.324Z,16.46
2018-09-12T15:23:48.260Z,16.53
2018-09-12T15:26:18.153Z,16.61
2018-09-12T15:28:48.612Z,16.55
2018-09-12T15:31:18.914Z,16.42
2018-09-12T15:33:48.923Z,16.38
2018-09-12T15:36:18.879Z,16.47
2018-09-12T15:38:49.682Z,16.51
2018-09-12T15:41:19.797Z,16.61
2018-09-12T15:43:53.321Z,16.55
2018-09-12T15:46:26.113Z,16.62
2018-09-12T15:48:56.401Z,16.64
2018-09-12T15:51:26.726Z,16.68
2018-09-12T15:53:56.631Z,16.63
2018-09-12T15:56:27.257Z,16.52
2018-09-12T15:59:00.225Z,16.45
2018-09-12T16:01:30.793Z,16.41
2018-09-12T16:04:00.922Z,16.41
2018-09-12T16:06:31.967Z,16.39
2018-09-12T16:09:09.542Z,16.50
2018-09-12T16:11:43.553Z,16.51
2018-09-12T16:14:16.341Z,16.44
2018-09-12T16:16:46.827Z,16.37
2018-09-12T16:19:19.580Z,16.44
2018-09-12T16:24:34.941Z,16.48
2018-09-12T16:27:07.040Z,16.34
2018-09-12T16:29:39.996Z,16.34
2018-09-12T16:32:11.112Z,16.35
2018-09-12T16:34:41.945Z,16.35
2018-09-12T16:37:12.017Z,16.25
2018-09-12T16:39:43.709Z,16.32
2018-09-12T16:42:13.701Z,16.30
2018-09-12T16:44:46.011Z,16.32
2018-09-12T16:47:17.328Z,16.35
2018-09-12T16:49:47.943Z,16.39
2018-09-12T16:52:18.210Z,16.39
2018-09-12T16:54:51.132Z,16.22
2018-09-12T16:57:19.669Z,16.25
2018-09-12T16:59:50.221Z,16.26
2018-09-12T17:02:20.278Z,16.25
2018-09-12T17:04:50.734Z,16.34
2018-09-12T17:07:22.034Z,16.26
2018-09-12T17:09:52.480Z,16.18
2018-09-12T17:12:22.655Z,16.16
2018-09-12T17:14:52.769Z,16.11
2018-09-12T17:17:23.952Z,16.11
2018-09-12T17:19:54.853Z,16.15
2018-09-12T17:22:24.888Z,16.14
2018-09-12T17:24:55.970Z,16.12
2018-09-12T17:27:25.899Z,15.98
2018-09-12T17:29:55.954Z,16.08
2018-09-12T17:32:26.631Z,16.04
2018-09-12T17:34:57.936Z,15.94
2018-09-12T17:37:27.995Z,16.02
2018-09-12T17:40:02.498Z,15.80
2018-09-12T17:42:34.211Z,15.78
2018-09-12T17:45:05.416Z,15.68
2018-09-12T17:47:35.330Z,15.68
2018-09-12T17:50:05.596Z,15.53
2018-09-12T17:52:36.227Z,15.62
2018-09-12T17:55:06.520Z,15.61
2018-09-12T17:57:36.543Z,15.49
2018-09-12T18:00:07.361Z,15.53
2018-09-12T18:02:37.385Z,15.46
2018-09-12T18:05:07.492Z,15.56
2018-09-12T18:07:37.343Z,15.58
2018-09-12T18:10:07.680Z,15.59
2018-09-12T18:12:37.551Z,15.54
2018-09-12T18:15:07.496Z,15.43
2018-09-12T18:17:42.191Z,15.39
2018-09-12T18:20:11.932Z,15.20
2018-09-12T18:22:41.968Z,15.17
2018-09-12T18:25:12.170Z,15.15
2018-09-12T18:27:42.080Z,15.29
2018-09-12T18:30:13.508Z,15.21
2018-09-12T18:32:43.452Z,15.22
2018-09-12T18:35:14.099Z,15.16
2018-09-12T18:37:44.431Z,15.25
2018-09-12T18:40:14.465Z,15.18
2018-09-12T18:42:45.496Z,15.19
2018-09-12T18:45:17.782Z,14.98
2018-09-12T18:47:47.853Z,14.97
2018-09-12T18:50:18.898Z,14.99
2018-09-12T18:52:49.218Z,15.10
2018-09-12T18:55:20.670Z,14.86
2018-09-12T18:57:50.985Z,14.96
2018-09-12T19:00:21.422Z,14.95
2018-09-12T19:02:51.872Z,14.86
2018-09-12T19:05:21.860Z,14.81
2018-09-12T19:07:59.164Z,14.92
2018-09-12T19:10:30.251Z,14.86
2018-09-12T19:13:01.836Z,14.90
2018-09-12T19:15:31.647Z,14.97
2018-09-12T19:18:03.081Z,14.80
2018-09-12T19:20:33.328Z,14.87
2018-09-12T19:23:03.746Z,14.78
2018-09-12T19:25:34.183Z,14.91
2018-09-12T19:28:05.775Z,14.86
2018-09-12T19:30:35.864Z,14.93
2018-09-12T19:33:07.098Z,14.91
2018-09-12T19:35:37.236Z,15.05
2018-09-12T19:38:07.335Z,15.02
2018-09-12T19:40:37.252Z,14.98
2018-09-12T19:45:49.883Z,14.95
2018-09-12T19:48:25.125Z,15.06
2018-09-12T19:50:58.134Z,15.15
2018-09-12T19:53:28.072Z,15.05
2018-09-12T19:55:58.107Z,15.06
2018-09-12T19:58:27.978Z,14.97
2018-09-12T20:00:59.626Z,14.91
2018-09-12T20:03:30.563Z,15.00
2018-09-12T20:06:00.681Z,14.91
2018-09-12T20:08:30.837Z,14.71
2018-09-12T20:11:03.998Z,14.66
2018-09-12T20:13:35.414Z,14.77
2018-09-12T20:16:07.883Z,14.75
2018-09-12T20:18:38.110Z,14.47
2018-09-12T20:21:08.091Z,14.45
2018-09-12T20:23:37.975Z,14.53
2018-09-12T20:26:08.318Z,14.63
2018-09-12T20:28:43.858Z,14.55
2018-09-12T20:31:13.873Z,14.57
2018-09-12T20:33:44.025Z,14.47
2018-09-12T20:36:17.376Z,14.38
2018-09-12T20:38:50.873Z,14.46
2018-09-12T20:41:23.114Z,14.35
2018-09-12T20:43:53.249Z,14.41
2018-09-12T20:46:25.051Z,14.22
2018-09-12T20:48:55.781Z,14.14
2018-09-12T20:51:28.109Z,14.22
2018-09-12T20:53:58.029Z,14.37
2018-09-12T20:56:28.496Z,14.35
2018-09-12T20:59:00.943Z,14.42
2018-09-12T21:01:32.757Z,14.51
2018-09-12T21:04:03.441Z,14.55
2018-09-12T21:06:33.388Z,14.58
2018-09-12T21:09:05.086Z,14.48
2018-09-12T21:11:36.883Z,14.54
2018-09-12T21:14:07.059Z,14.41
2018-09-12T21:16:37.226Z,14.42
2018-09-12T21:19:09.737Z,14.37
2018-09-12T21:21:41.467Z,14.41
2018-09-12T21:24:11.824Z,14.51
2018-09-12T21:26:44.461Z,14.51
2018-09-12T21:29:15.511Z,14.62
2018-09-12T21:31:46.188Z,14.58
2018-09-12T21:34:16.508Z,14.36
2018-09-12T21:36:47.807Z,14.28
2018-09-12T21:39:18.797Z,14.48
2018-09-12T21:41:49.692Z,14.34
2018-09-12T21:44:19.914Z,14.16
2018-09-12T22:00:22.890Z,14.21
2018-09-12T22:02:52.804Z,14.15
2018-09-12T22:05:22.976Z,14.37
2018-09-12T22:07:53.227Z,14.32
2018-09-12T22:10:24.063Z,14.45
2018-09-12T22:12:54.099Z,14.22
2018-09-12T22:15:25.224Z,14.18
2018-09-12T22:17:55.485Z,13.92
2018-09-12T22:20:25.520Z,13.89
2018-09-12T22:22:56.389Z,13.75
2018-09-12T22:25:39.397Z,13.94
2018-09-12T22:28:09.380Z,14.21
2018-09-12T22:30:41.832Z,14.37
2018-09-12T22:33:12.270Z,14.37
2018-09-12T22:35:42.647Z,14.32
2018-09-12T22:38:13.027Z,14.32
2018-09-12T22:40:43.079Z,14.28
2018-09-12T22:43:13.791Z,14.30
2018-09-12T22:45:44.761Z,14.29
2018-09-12T22:49:52.330Z,14.33
2018-09-12T22:52:24.567Z,14.42
2018-09-12T22:54:54.547Z,14.42
2018-09-12T22:57:38.355Z,14.36
2018-09-12T23:00:09.285Z,13.85
2018-09-12T23:02:39.407Z,13.57
2018-09-12T23:05:11.363Z,13.65
2018-09-12T23:07:43.228Z,13.61
2018-09-12T23:10:14.403Z,13.68
2018-09-12T23:12:44.477Z,13.85
2018-09-12T23:15:14.514Z,14.03
2018-09-12T23:17:46.407Z,13.95
2018-09-12T23:20:19.301Z,13.94
2018-09-12T23:22:49.277Z,14.08
2018-09-12T23:25:19.803Z,14.17
2018-09-12T23:27:50.215Z,14.21
2018-09-12T23:33:13.151Z,14.22
2018-09-12T23:35:43.411Z,14.12
2018-09-12T23:40:55.936Z,14.15
2018-09-12T23:43:30.604Z,14.14
2018-09-12T23:46:00.990Z,14.08
2018-09-12T23:48:32.620Z,14.11
2018-09-12T23:51:02.693Z,14.10
2018-09-12T23:53:32.775Z,13.83
2018-09-12T23:56:02.866Z,13.61
2018-09-12T23:58:32.936Z,13.63
